sensor_id;sensor_type;location;lat;lon;timestamp;pressure;altitude;pressure_sealevel;temperature;humidity
28626;BME280;18905;42.668;23.364;2023-10-13T00:02:00;95490.28;;;12.14;100.00
28626;BME280;18905;42.668;23.364;2023-10-13T00:04:30;95534.44;;;12.40;100.00
28626;BME280;18905;42.668;23.364;2023-10-13T00:06:58;95511.97;;;12.31;100.00
28626;BME280;18905;42.668;23.364;2023-10-13T00:09:25;95603.13;;;12.78;100.00
28626;BME280;18905;42.668;23.364;2023-10-13T00:11:55;95459.72;;;11.88;100.00
28626;BME280;18905;42.668;23.364;2023-10-13T00:14:21;95508.94;;;12.16;100.00
28626;BME280;18905;42.668;23.364;2023-10-13T00:16:49;95526.31;;;12.15;100.00
28626;BME280;18905;42.668;23.364;2023-10-13T00:19:31;95480.72;;;11.82;100.00
28626;BME280;18905;42.668;23.364;2023-10-13T00:22:28;95503.53;;;11.99;100.00
28626;BME280;18905;42.668;23.364;2023-10-13T00:25:00;95537.44;;;12.13;100.00
28626;BME280;18905;42.668;23.364;2023-10-13T00:27:28;95484.22;;;11.83;100.00
28626;BME280;18905;42.668;23.364;2023-10-13T00:30:07;95518.66;;;12.08;100.00
28626;BME280;18905;42.668;23.364;2023-10-13T00:32:48;95550.34;;;12.25;100.00
28626;BME280;18905;42.668;23.364;2023-10-13T00:35:20;95512.91;;;12.01;100.00
28626;BME280;18905;42.668;23.364;2023-10-13T00:38:06;95505.09;;;12.00;100.00
28626;BME280;18905;42.668;23.364;2023-10-13T00:40:42;95552.91;;;12.21;100.00
28626;BME280;18905;42.668;23.364;2023-10-13T00:43:10;95541.88;;;12.09;100.00
28626;BME280;18905;42.668;23.364;2023-10-13T00:48:13;95511.91;;;11.88;100.00
28626;BME280;18905;42.668;23.364;2023-10-13T00:50:40;95502.97;;;11.79;100.00
28626;BME280;18905;42.668;23.364;2023-10-13T00:53:07;95596.25;;;12.38;100.00
28626;BME280;18905;42.668;23.364;2023-10-13T00:55:34;95551.63;;;12.10;100.00
28626;BME280;18905;42.668;23.364;2023-10-13T00:58:08;95456.75;;;11.50;100.00
28626;BME280;18905;42.668;23.364;2023-10-13T01:00:38;95478.91;;;11.61;100.00
28626;BME280;18905;42.668;23.364;2023-10-13T01:03:23;95591.94;;;12.29;100.00
28626;BME280;18905;42.668;23.364;2023-10-13T01:05:55;95534.22;;;11.86;100.00
28626;BME280;18905;42.668;23.364;2023-10-13T01:08:33;95610.56;;;12.30;100.00
28626;BME280;18905;42.668;23.364;2023-10-13T01:11:04;95563.06;;;12.07;100.00
28626;BME280;18905;42.668;23.364;2023-10-13T01:13:33;95471.16;;;11.37;100.00
28626;BME280;18905;42.668;23.364;2023-10-13T01:16:03;95478.81;;;11.44;100.00
28626;BME280;18905;42.668;23.364;2023-10-13T01:18:34;95467.69;;;11.37;100.00
28626;BME280;18905;42.668;23.364;2023-10-13T01:21:12;95466.06;;;11.36;100.00
28626;BME280;18905;42.668;23.364;2023-10-13T01:23:43;95496.84;;;11.57;100.00
28626;BME280;18905;42.668;23.364;2023-10-13T01:26:21;95477.84;;;11.40;100.00
28626;BME280;18905;42.668;23.364;2023-10-13T01:28:51;95499.19;;;11.50;100.00
28626;BME280;18905;42.668;23.364;2023-10-13T01:31:19;95611.19;;;12.19;100.00
28626;BME280;18905;42.668;23.364;2023-10-13T01:34:02;95561.56;;;11.84;100.00
28626;BME280;18905;42.668;23.364;2023-10-13T01:36:28;95613.72;;;12.15;100.00
28626;BME280;18905;42.668;23.364;2023-10-13T01:39:00;95527.75;;;11.64;100.00
28626;BME280;18905;42.668;23.364;2023-10-13T01:41:27;95480.53;;;11.31;100.00
28626;BME280;18905;42.668;23.364;2023-10-13T01:43:52;95574.28;;;11.83;100.00
28626;BME280;18905;42.668;23.364;2023-10-13T01:46:22;95500.28;;;11.32;100.00
28626;BME280;18905;42.668;23.364;2023-10-13T01:48:48;95598.50;;;11.88;100.00
28626;BME280;18905;42.668;23.364;2023-10-13T01:51:14;95555.44;;;11.61;100.00
28626;BME280;18905;42.668;23.364;2023-10-13T01:53:40;95533.88;;;11.48;100.00
28626;BME280;18905;42.668;23.364;2023-10-13T01:56:22;95499.25;;;11.19;100.00
28626;BME280;18905;42.668;23.364;2023-10-13T01:58:56;95565.94;;;11.63;100.00
28626;BME280;18905;42.668;23.364;2023-10-13T02:01:22;95620.00;;;11.93;100.00
28626;BME280;18905;42.668;23.364;2023-10-13T02:03:58;95467.06;;;11.01;100.00
28626;BME280;18905;42.668;23.364;2023-10-13T02:06:30;95504.19;;;11.26;100.00
28626;BME280;18905;42.668;23.364;2023-10-13T02:09:08;95611.13;;;11.93;100.00
28626;BME280;18905;42.668;23.364;2023-10-13T02:11:54;95512.66;;;11.33;100.00
28626;BME280;18905;42.668;23.364;2023-10-13T02:14:23;95459.41;;;10.94;100.00
28626;BME280;18905;42.668;23.364;2023-10-13T02:16:53;95516.16;;;11.33;100.00
28626;BME280;18905;42.668;23.364;2023-10-13T02:19:38;95547.56;;;11.51;100.00
28626;BME280;18905;42.668;23.364;2023-10-13T02:22:10;95576.81;;;11.72;100.00
28626;BME280;18905;42.668;23.364;2023-10-13T02:24:36;95483.28;;;11.09;100.00
28626;BME280;18905;42.668;23.364;2023-10-13T02:27:07;95463.00;;;10.90;100.00
28626;BME280;18905;42.668;23.364;2023-10-13T02:29:40;95552.13;;;11.42;100.00
28626;BME280;18905;42.668;23.364;2023-10-13T02:32:06;95528.22;;;11.27;100.00
28626;BME280;18905;42.668;23.364;2023-10-13T02:34:44;95515.13;;;11.12;100.00
28626;BME280;18905;42.668;23.364;2023-10-13T02:37:13;95517.19;;;11.15;100.00
28626;BME280;18905;42.668;23.364;2023-10-13T02:39:42;95515.75;;;11.18;100.00
28626;BME280;18905;42.668;23.364;2023-10-13T02:42:09;95505.22;;;11.08;100.00
28626;BME280;18905;42.668;23.364;2023-10-13T02:44:49;95554.81;;;11.34;100.00
28626;BME280;18905;42.668;23.364;2023-10-13T02:47:16;95438.38;;;10.61;100.00
28626;BME280;18905;42.668;23.364;2023-10-13T02:49:46;95554.94;;;11.29;100.00
28626;BME280;18905;42.668;23.364;2023-10-13T02:52:13;95497.91;;;10.78;100.00
28626;BME280;18905;42.668;23.364;2023-10-13T02:54:42;95478.41;;;10.59;100.00
28626;BME280;18905;42.668;23.364;2023-10-13T02:57:18;95619.44;;;11.44;100.00
28626;BME280;18905;42.668;23.364;2023-10-13T02:59:44;95630.25;;;11.44;100.00
28626;BME280;18905;42.668;23.364;2023-10-13T03:02:15;95526.00;;;10.77;100.00
28626;BME280;18905;42.668;23.364;2023-10-13T03:05:04;95550.09;;;10.87;100.00
28626;BME280;18905;42.668;23.364;2023-10-13T03:07:41;95579.00;;;11.08;100.00
28626;BME280;18905;42.668;23.364;2023-10-13T03:10:10;95478.00;;;10.43;100.00
28626;BME280;18905;42.668;23.364;2023-10-13T03:12:40;95560.22;;;11.03;100.00
28626;BME280;18905;42.668;23.364;2023-10-13T03:15:07;95598.34;;;11.24;100.00
28626;BME280;18905;42.668;23.364;2023-10-13T03:17:58;95518.38;;;10.70;100.00
28626;BME280;18905;42.668;23.364;2023-10-13T03:20:24;95572.63;;;11.04;100.00
28626;BME280;18905;42.668;23.364;2023-10-13T03:22:57;95458.53;;;10.33;100.00
28626;BME280;18905;42.668;23.364;2023-10-13T03:25:23;95582.81;;;11.07;100.00
28626;BME280;18905;42.668;23.364;2023-10-13T03:27:58;95634.69;;;11.40;100.00
28626;BME280;18905;42.668;23.364;2023-10-13T03:30:24;95463.50;;;10.39;100.00
28626;BME280;18905;42.668;23.364;2023-10-13T03:33:07;95516.75;;;10.69;100.00
28626;BME280;18905;42.668;23.364;2023-10-13T03:35:51;95625.41;;;11.32;100.00
28626;BME280;18905;42.668;23.364;2023-10-13T03:38:20;95629.53;;;11.30;100.00
28626;BME280;18905;42.668;23.364;2023-10-13T03:40:47;95478.72;;;10.35;100.00
28626;BME280;18905;42.668;23.364;2023-10-13T03:43:33;95530.34;;;10.78;100.00
28626;BME280;18905;42.668;23.364;2023-10-13T03:46:10;95461.72;;;10.35;100.00
28626;BME280;18905;42.668;23.364;2023-10-13T03:48:36;95460.31;;;10.37;100.00
28626;BME280;18905;42.668;23.364;2023-10-13T03:51:22;95469.09;;;10.43;100.00
28626;BME280;18905;42.668;23.364;2023-10-13T03:53:56;95463.22;;;10.41;100.00
28626;BME280;18905;42.668;23.364;2023-10-13T03:56:26;95509.81;;;10.77;100.00
28626;BME280;18905;42.668;23.364;2023-10-13T03:58:57;95494.38;;;10.69;100.00
28626;BME280;18905;42.668;23.364;2023-10-13T04:01:31;95455.28;;;10.66;100.00
28626;BME280;18905;42.668;23.364;2023-10-13T04:04:01;95505.22;;;11.77;100.00
28626;BME280;18905;42.668;23.364;2023-10-13T04:06:34;95497.94;;;12.12;100.00
28626;BME280;18905;42.668;23.364;2023-10-13T04:09:15;95595.00;;;12.95;100.00
28626;BME280;18905;42.668;23.364;2023-10-13T04:12:00;95480.91;;;12.37;100.00
28626;BME280;18905;42.668;23.364;2023-10-13T04:17:43;95588.00;;;13.74;100.00
28626;BME280;18905;42.668;23.364;2023-10-13T04:20:12;95585.22;;;13.91;100.00
28626;BME280;18905;42.668;23.364;2023-10-13T04:22:40;95596.19;;;14.03;100.00
28626;BME280;18905;42.668;23.364;2023-10-13T04:25:22;95589.72;;;14.25;100.00
28626;BME280;18905;42.668;23.364;2023-10-13T04:28:14;95563.84;;;14.19;100.00
28626;BME280;18905;42.668;23.364;2023-10-13T04:30:43;95511.91;;;14.00;100.00
28626;BME280;18905;42.668;23.364;2023-10-13T04:33:26;95545.88;;;14.35;100.00
28626;BME280;18905;42.668;23.364;2023-10-13T04:39:26;95488.13;;;14.17;100.00
28626;BME280;18905;42.668;23.364;2023-10-13T04:42:04;95466.72;;;13.95;100.00
28626;BME280;18905;42.668;23.364;2023-10-13T04:44:50;95556.75;;;14.55;100.00
28626;BME280;18905;42.668;23.364;2023-10-13T04:47:19;95624.91;;;14.91;100.00
28626;BME280;18905;42.668;23.364;2023-10-13T04:49:51;95599.78;;;14.24;100.00
28626;BME280;18905;42.668;23.364;2023-10-13T04:53:11;95549.34;;;13.77;100.00
28626;BME280;18905;42.668;23.364;2023-10-13T04:55:57;95535.22;;;13.00;100.00
28626;BME280;18905;42.668;23.364;2023-10-13T05:04:41;95576.09;;;13.58;100.00
28626;BME280;18905;42.668;23.364;2023-10-13T05:07:28;95537.66;;;13.48;100.00
28626;BME280;18905;42.668;23.364;2023-10-13T05:10:12;95659.97;;;14.35;100.00
28626;BME280;18905;42.668;23.364;2023-10-13T05:31:25;95550.94;;;13.87;100.00
28626;BME280;18905;42.668;23.364;2023-10-13T05:34:31;95540.94;;;13.99;100.00
28626;BME280;18905;42.668;23.364;2023-10-13T05:37:10;95681.38;;;14.94;100.00
28626;BME280;18905;42.668;23.364;2023-10-13T05:39:55;95600.34;;;14.38;100.00
28626;BME280;18905;42.668;23.364;2023-10-13T05:42:39;95591.22;;;14.05;100.00
28626;BME280;18905;42.668;23.364;2023-10-13T05:45:24;95573.50;;;13.70;100.00
28626;BME280;18905;42.668;23.364;2023-10-13T05:48:02;95614.75;;;13.93;100.00
28626;BME280;18905;42.668;23.364;2023-10-13T05:50:38;95688.09;;;14.39;100.00
28626;BME280;18905;42.668;23.364;2023-10-13T05:53:36;95658.78;;;14.07;100.00
28626;BME280;18905;42.668;23.364;2023-10-13T05:56:20;95666.94;;;14.07;100.00
28626;BME280;18905;42.668;23.364;2023-10-13T05:59:05;95573.34;;;14.04;100.00
28626;BME280;18905;42.668;23.364;2023-10-13T06:01:49;95564.16;;;16.21;100.00
28626;BME280;18905;42.668;23.364;2023-10-13T06:04:33;95607.38;;;18.35;93.75
28626;BME280;18905;42.668;23.364;2023-10-13T06:07:17;95683.56;;;19.71;83.22
28626;BME280;18905;42.668;23.364;2023-10-13T06:10:02;95595.44;;;19.88;76.49
28626;BME280;18905;42.668;23.364;2023-10-13T06:12:48;95587.56;;;20.28;71.85
28626;BME280;18905;42.668;23.364;2023-10-13T06:15:38;95615.69;;;19.84;72.86
28626;BME280;18905;42.668;23.364;2023-10-13T06:18:22;95612.66;;;19.28;77.59
28626;BME280;18905;42.668;23.364;2023-10-13T06:21:07;95679.38;;;19.77;77.41
28626;BME280;18905;42.668;23.364;2023-10-13T06:23:55;95635.25;;;20.46;72.46
28626;BME280;18905;42.668;23.364;2023-10-13T06:26:39;95709.25;;;21.66;67.64
28626;BME280;18905;42.668;23.364;2023-10-13T06:29:23;95617.03;;;21.10;66.29
28626;BME280;18905;42.668;23.364;2023-10-13T06:31:50;95644.09;;;21.08;67.33
28626;BME280;18905;42.668;23.364;2023-10-13T06:34:16;95580.69;;;20.15;68.08
28626;BME280;18905;42.668;23.364;2023-10-13T06:36:46;95709.34;;;20.69;71.11
28626;BME280;18905;42.668;23.364;2023-10-13T06:39:14;95606.13;;;19.74;71.99
28626;BME280;18905;42.668;23.364;2023-10-13T06:41:58;95673.03;;;19.92;74.54
28626;BME280;18905;42.668;23.364;2023-10-13T06:44:24;95601.50;;;19.21;74.45
28626;BME280;18905;42.668;23.364;2023-10-13T06:46:50;95608.41;;;19.31;74.19
28626;BME280;18905;42.668;23.364;2023-10-13T06:49:16;95639.00;;;19.36;75.90
28626;BME280;18905;42.668;23.364;2023-10-13T06:51:43;95706.34;;;19.94;76.52
28626;BME280;18905;42.668;23.364;2023-10-13T06:54:18;95627.13;;;19.48;74.85
28626;BME280;18905;42.668;23.364;2023-10-13T06:56:47;95590.25;;;19.23;75.91
28626;BME280;18905;42.668;23.364;2023-10-13T06:59:17;95593.91;;;19.49;75.00
28626;BME280;18905;42.668;23.364;2023-10-13T07:01:43;95579.88;;;20.15;100.00
28626;BME280;18905;42.668;23.364;2023-10-13T07:04:10;95687.56;;;21.58;72.36
28626;BME280;18905;42.668;23.364;2023-10-13T07:06:41;95592.81;;;21.78;90.75
28626;BME280;18905;42.668;23.364;2023-10-13T07:09:14;95557.72;;;22.48;84.97
28626;BME280;18905;42.668;23.364;2023-10-13T07:11:59;95605.25;;;23.56;62.39
28626;BME280;18905;42.668;23.364;2023-10-13T07:14:27;95576.72;;;24.34;67.72
28626;BME280;18905;42.668;23.364;2023-10-13T07:17:03;95675.38;;;24.65;56.95
28626;BME280;18905;42.668;23.364;2023-10-13T07:19:30;95675.38;;;25.07;59.69
28626;BME280;18905;42.668;23.364;2023-10-13T07:22:01;95692.25;;;25.72;54.80
28626;BME280;18905;42.668;23.364;2023-10-13T07:24:48;95702.59;;;25.40;54.24
28626;BME280;18905;42.668;23.364;2023-10-13T07:27:17;95698.59;;;25.69;52.64
28626;BME280;18905;42.668;23.364;2023-10-13T07:29:54;95694.81;;;26.32;52.63
28626;BME280;18905;42.668;23.364;2023-10-13T07:32:42;95679.50;;;26.06;49.99
28626;BME280;18905;42.668;23.364;2023-10-13T07:35:20;95676.41;;;25.94;51.01
28626;BME280;18905;42.668;23.364;2023-10-13T07:37:50;95693.38;;;26.78;49.24
28626;BME280;18905;42.668;23.364;2023-10-13T07:40:18;95683.53;;;27.18;47.33
28626;BME280;18905;42.668;23.364;2023-10-13T07:43:04;95682.81;;;27.10;46.27
28626;BME280;18905;42.668;23.364;2023-10-13T07:45:36;95679.38;;;26.31;46.77
28626;BME280;18905;42.668;23.364;2023-10-13T07:48:06;95668.25;;;24.78;49.15
28626;BME280;18905;42.668;23.364;2023-10-13T07:50:59;95683.59;;;25.56;50.44
28626;BME280;18905;42.668;23.364;2023-10-13T07:53:37;95680.88;;;25.28;49.07
28626;BME280;18905;42.668;23.364;2023-10-13T07:56:14;95667.84;;;25.25;52.61
28626;BME280;18905;42.668;23.364;2023-10-13T07:58:44;95666.81;;;26.16;50.21
28626;BME280;18905;42.668;23.364;2023-10-13T08:01:26;95680.25;;;26.14;49.59
28626;BME280;18905;42.668;23.364;2023-10-13T08:03:52;95677.50;;;26.17;48.60
28626;BME280;18905;42.668;23.364;2023-10-13T08:06:30;95672.09;;;26.65;48.71
28626;BME280;18905;42.668;23.364;2023-10-13T08:08:56;95656.25;;;26.69;47.33
28626;BME280;18905;42.668;23.364;2023-10-13T08:11:33;95656.28;;;25.76;46.57
28626;BME280;18905;42.668;23.364;2023-10-13T08:14:06;95663.44;;;25.70;49.83
28626;BME280;18905;42.668;23.364;2023-10-13T08:16:42;95667.75;;;25.74;49.47
28626;BME280;18905;42.668;23.364;2023-10-13T08:19:12;95667.47;;;26.41;48.88
28626;BME280;18905;42.668;23.364;2023-10-13T08:21:40;95655.06;;;25.84;47.06
28626;BME280;18905;42.668;23.364;2023-10-13T08:24:14;95671.81;;;25.35;50.01
28626;BME280;18905;42.668;23.364;2023-10-13T08:26:40;95669.78;;;25.56;48.23
28626;BME280;18905;42.668;23.364;2023-10-13T08:29:24;95677.16;;;26.05;49.97
28626;BME280;18905;42.668;23.364;2023-10-13T08:31:55;95677.72;;;26.51;47.54
28626;BME280;18905;42.668;23.364;2023-10-13T09:21:41;95641.03;;;24.59;53.51
28626;BME280;18905;42.668;23.364;2023-10-13T09:24:13;95575.06;;;24.05;54.39
28626;BME280;18905;42.668;23.364;2023-10-13T09:27:00;95619.69;;;25.12;52.08
28626;BME280;18905;42.668;23.364;2023-10-13T09:29:31;95644.97;;;25.32;53.79
28626;BME280;18905;42.668;23.364;2023-10-13T09:32:42;95563.56;;;25.47;49.43
28626;BME280;18905;42.668;23.364;2023-10-13T09:35:17;95582.03;;;25.67;51.50
28626;BME280;18905;42.668;23.364;2023-10-13T09:37:44;95603.63;;;26.04;48.87
28626;BME280;18905;42.668;23.364;2023-10-13T09:40:17;95625.22;;;26.30;51.20
28626;BME280;18905;42.668;23.364;2023-10-13T09:43:00;95609.72;;;26.94;49.51
28626;BME280;18905;42.668;23.364;2023-10-13T09:45:32;95626.94;;;27.19;47.69
28626;BME280;18905;42.668;23.364;2023-10-13T09:48:03;95608.69;;;26.77;48.36
28626;BME280;18905;42.668;23.364;2023-10-13T09:50:38;95604.03;;;26.64;46.85
28626;BME280;18905;42.668;23.364;2023-10-13T09:53:12;95539.19;;;26.03;49.69
28626;BME280;18905;42.668;23.364;2023-10-13T09:55:46;95609.31;;;25.69;49.65
28626;BME280;18905;42.668;23.364;2023-10-13T09:58:33;95531.19;;;25.44;50.21
28626;BME280;18905;42.668;23.364;2023-10-13T10:01:06;95572.22;;;25.49;49.68
28626;BME280;18905;42.668;23.364;2023-10-13T10:03:45;95601.09;;;25.37;53.38
28626;BME280;18905;42.668;23.364;2023-10-13T10:06:23;95603.72;;;25.76;51.24
28626;BME280;18905;42.668;23.364;2023-10-13T10:09:05;95597.31;;;26.03;48.96
28626;BME280;18905;42.668;23.364;2023-10-13T10:12:06;95594.00;;;25.36;49.42
28626;BME280;18905;42.668;23.364;2023-10-13T10:15:15;95592.81;;;25.34;47.66
28626;BME280;18905;42.668;23.364;2023-10-13T10:17:53;95596.25;;;25.69;47.23
28626;BME280;18905;42.668;23.364;2023-10-13T10:20:36;95587.53;;;25.74;44.88
28626;BME280;18905;42.668;23.364;2023-10-13T10:23:07;95587.16;;;26.41;45.86
28626;BME280;18905;42.668;23.364;2023-10-13T10:25:38;95575.31;;;26.91;45.01
28626;BME280;18905;42.668;23.364;2023-10-13T10:28:07;95572.97;;;26.32;44.96
28626;BME280;18905;42.668;23.364;2023-10-13T10:30:38;95552.66;;;26.56;45.35
28626;BME280;18905;42.668;23.364;2023-10-13T10:33:05;95571.16;;;27.10;43.08
28626;BME280;18905;42.668;23.364;2023-10-13T10:35:39;95558.22;;;26.96;41.91
28626;BME280;18905;42.668;23.364;2023-10-13T10:38:12;95570.06;;;27.41;41.20
28626;BME280;18905;42.668;23.364;2023-10-13T10:40:57;95571.56;;;27.49;40.07
28626;BME280;18905;42.668;23.364;2023-10-13T10:46:11;95561.03;;;27.67;39.38
28626;BME280;18905;42.668;23.364;2023-10-13T10:48:37;95565.72;;;27.40;39.65
28626;BME280;18905;42.668;23.364;2023-10-13T10:51:14;95552.66;;;27.00;42.96
28626;BME280;18905;42.668;23.364;2023-10-13T10:53:40;95549.81;;;27.07;40.58
28626;BME280;18905;42.668;23.364;2023-10-13T10:56:10;95559.06;;;27.34;41.13
28626;BME280;18905;42.668;23.364;2023-10-13T10:58:49;95557.28;;;27.84;40.82
28626;BME280;18905;42.668;23.364;2023-10-13T11:01:21;95552.59;;;27.44;41.22
28626;BME280;18905;42.668;23.364;2023-10-13T11:04:01;95544.97;;;26.77;39.31
28626;BME280;18905;42.668;23.364;2023-10-13T11:06:35;95554.88;;;26.75;40.03
28626;BME280;18905;42.668;23.364;2023-10-13T11:09:07;95550.78;;;26.90;40.16
28626;BME280;18905;42.668;23.364;2023-10-13T11:11:47;95543.72;;;26.85;40.93
28626;BME280;18905;42.668;23.364;2023-10-13T11:14:21;95537.41;;;27.22;40.27
28626;BME280;18905;42.668;23.364;2023-10-13T11:16:51;95541.19;;;26.57;40.08
28626;BME280;18905;42.668;23.364;2023-10-13T11:19:33;95537.41;;;26.78;39.78
28626;BME280;18905;42.668;23.364;2023-10-13T11:22:12;95531.69;;;26.99;39.32
28626;BME280;18905;42.668;23.364;2023-10-13T11:24:55;95528.75;;;27.50;38.11
28626;BME280;18905;42.668;23.364;2023-10-13T11:27:28;95520.69;;;27.29;38.49
28626;BME280;18905;42.668;23.364;2023-10-13T11:30:09;95521.94;;;27.88;38.44
28626;BME280;18905;42.668;23.364;2023-10-13T11:32:38;95517.44;;;27.97;36.93
28626;BME280;18905;42.668;23.364;2023-10-13T11:35:10;95509.25;;;27.87;38.33
28626;BME280;18905;42.668;23.364;2023-10-13T11:37:51;95523.81;;;27.64;36.17
28626;BME280;18905;42.668;23.364;2023-10-13T11:40:29;95516.09;;;27.12;36.71
28626;BME280;18905;42.668;23.364;2023-10-13T11:43:33;95502.09;;;27.26;36.96
28626;BME280;18905;42.668;23.364;2023-10-13T11:46:26;95500.31;;;27.42;36.94
28626;BME280;18905;42.668;23.364;2023-10-13T11:49:02;95497.31;;;27.90;36.18
28626;BME280;18905;42.668;23.364;2023-10-13T11:54:18;95507.25;;;27.57;37.24
28626;BME280;18905;42.668;23.364;2023-10-13T11:56:48;95501.75;;;27.54;37.51
28626;BME280;18905;42.668;23.364;2023-10-13T11:59:14;95495.97;;;27.71;39.19
28626;BME280;18905;42.668;23.364;2023-10-13T12:01:49;95487.41;;;27.59;37.47
28626;BME280;18905;42.668;23.364;2023-10-13T12:04:34;95494.13;;;27.91;37.03
28626;BME280;18905;42.668;23.364;2023-10-13T12:07:14;95482.53;;;28.23;39.49
28626;BME280;18905;42.668;23.364;2023-10-13T12:09:43;95468.13;;;28.31;36.03
28626;BME280;18905;42.668;23.364;2023-10-13T12:12:29;95481.81;;;28.19;36.24
28626;BME280;18905;42.668;23.364;2023-10-13T12:14:56;95473.00;;;28.24;35.48
28626;BME280;18905;42.668;23.364;2023-10-13T12:19:57;95474.81;;;28.11;38.25
28626;BME280;18905;42.668;23.364;2023-10-13T12:22:22;95477.53;;;27.88;36.83
28626;BME280;18905;42.668;23.364;2023-10-13T12:24:57;95472.00;;;27.88;37.76
28626;BME280;18905;42.668;23.364;2023-10-13T12:27:22;95476.41;;;27.22;37.13
28626;BME280;18905;42.668;23.364;2023-10-13T12:30:00;95461.03;;;27.47;38.90
28626;BME280;18905;42.668;23.364;2023-10-13T12:32:33;95468.34;;;27.91;36.65
28626;BME280;18905;42.668;23.364;2023-10-13T12:34:59;95462.44;;;27.59;37.50
28626;BME280;18905;42.668;23.364;2023-10-13T12:37:42;95463.47;;;27.42;37.42
28626;BME280;18905;42.668;23.364;2023-10-13T12:40:13;95461.94;;;27.37;37.01
28626;BME280;18905;42.668;23.364;2023-10-13T12:43:03;95470.88;;;27.52;39.52
28626;BME280;18905;42.668;23.364;2023-10-13T12:45:49;95462.44;;;26.95;40.10
28626;BME280;18905;42.668;23.364;2023-10-13T12:48:34;95462.63;;;27.15;42.54
28626;BME280;18905;42.668;23.364;2023-10-13T12:51:19;95463.44;;;27.12;38.08
28626;BME280;18905;42.668;23.364;2023-10-13T12:53:54;95452.25;;;27.22;38.01
28626;BME280;18905;42.668;23.364;2023-10-13T12:56:21;95450.91;;;27.00;37.67
28626;BME280;18905;42.668;23.364;2023-10-13T12:58:53;95458.34;;;27.07;37.51
28626;BME280;18905;42.668;23.364;2023-10-13T13:01:22;95435.22;;;27.24;37.34
28626;BME280;18905;42.668;23.364;2023-10-13T13:03:50;95456.28;;;27.74;38.70
28626;BME280;18905;42.668;23.364;2023-10-13T13:06:17;95453.53;;;28.01;38.03
28626;BME280;18905;42.668;23.364;2023-10-13T13:08:43;95447.56;;;28.02;37.77
28626;BME280;18905;42.668;23.364;2023-10-13T13:11:10;95451.63;;;27.98;37.01
28626;BME280;18905;42.668;23.364;2023-10-13T13:13:36;95438.22;;;27.93;36.40
28626;BME280;18905;42.668;23.364;2023-10-13T13:16:01;95437.84;;;27.91;39.40
28626;BME280;18905;42.668;23.364;2023-10-13T13:18:28;95457.00;;;27.82;36.61
28626;BME280;18905;42.668;23.364;2023-10-13T13:20:54;95424.75;;;27.61;36.25
28626;BME280;18905;42.668;23.364;2023-10-13T13:23:20;95454.09;;;28.15;35.87
28626;BME280;18905;42.668;23.364;2023-10-13T13:25:47;95435.22;;;28.30;35.39
28626;BME280;18905;42.668;23.364;2023-10-13T13:28:13;95436.19;;;28.20;35.66
28626;BME280;18905;42.668;23.364;2023-10-13T13:30:43;95421.56;;;27.93;35.87
28626;BME280;18905;42.668;23.364;2023-10-13T13:33:09;95437.22;;;27.80;35.90
28626;BME280;18905;42.668;23.364;2023-10-13T13:35:41;95412.38;;;27.69;36.85
28626;BME280;18905;42.668;23.364;2023-10-13T13:38:09;95442.06;;;27.72;36.07
28626;BME280;18905;42.668;23.364;2023-10-13T13:40:37;95448.94;;;27.91;35.58
28626;BME280;18905;42.668;23.364;2023-10-13T13:43:03;95451.56;;;28.01;35.76
28626;BME280;18905;42.668;23.364;2023-10-13T13:45:28;95443.03;;;27.89;35.77
28626;BME280;18905;42.668;23.364;2023-10-13T13:47:54;95455.78;;;27.23;37.10
28626;BME280;18905;42.668;23.364;2023-10-13T13:50:24;95456.00;;;27.05;36.97
28626;BME280;18905;42.668;23.364;2023-10-13T13:52:53;95455.47;;;27.17;37.18
28626;BME280;18905;42.668;23.364;2023-10-13T13:55:22;95442.72;;;27.23;36.84
28626;BME280;18905;42.668;23.364;2023-10-13T13:57:48;95426.75;;;26.64;37.20
28626;BME280;18905;42.668;23.364;2023-10-13T14:00:19;95430.69;;;26.66;37.54
28626;BME280;18905;42.668;23.364;2023-10-13T14:03:04;95427.22;;;26.55;38.06
28626;BME280;18905;42.668;23.364;2023-10-13T14:05:30;95447.94;;;26.81;39.02
28626;BME280;18905;42.668;23.364;2023-10-13T14:07:55;95410.66;;;26.52;39.04
28626;BME280;18905;42.668;23.364;2023-10-13T14:10:21;95453.38;;;26.91;38.58
28626;BME280;18905;42.668;23.364;2023-10-13T14:13:18;95448.09;;;27.04;37.71
28626;BME280;18905;42.668;23.364;2023-10-13T14:15:47;95444.19;;;26.98;38.26
28626;BME280;18905;42.668;23.364;2023-10-13T14:18:13;95440.25;;;26.62;38.48
28626;BME280;18905;42.668;23.364;2023-10-13T14:20:41;95455.59;;;26.70;39.02
28626;BME280;18905;42.668;23.364;2023-10-13T14:23:08;95450.47;;;26.68;39.41
28626;BME280;18905;42.668;23.364;2023-10-13T14:25:37;95435.81;;;26.71;39.29
28626;BME280;18905;42.668;23.364;2023-10-13T14:28:05;95442.41;;;26.81;38.79
28626;BME280;18905;42.668;23.364;2023-10-13T14:30:30;95430.72;;;26.63;39.17
28626;BME280;18905;42.668;23.364;2023-10-13T14:32:56;95442.88;;;26.76;38.87
28626;BME280;18905;42.668;23.364;2023-10-13T14:35:23;95419.47;;;26.40;39.73
28626;BME280;18905;42.668;23.364;2023-10-13T14:37:51;95455.78;;;26.49;39.48
28626;BME280;18905;42.668;23.364;2023-10-13T14:40:17;95417.88;;;25.98;40.63
28626;BME280;18905;42.668;23.364;2023-10-13T14:42:46;95416.41;;;25.80;40.23
28626;BME280;18905;42.668;23.364;2023-10-13T14:45:14;95453.09;;;25.94;40.44
28626;BME280;18905;42.668;23.364;2023-10-13T14:47:45;95380.69;;;25.45;40.55
28626;BME280;18905;42.668;23.364;2023-10-13T14:50:13;95367.78;;;25.31;40.80
28626;BME280;18905;42.668;23.364;2023-10-13T14:52:48;95395.69;;;25.51;41.19